メインページ
METAR-TAF:

METAR-TAF

空港 :

ヌアクショット, モーリタニア

ヌアクショット空港

緯度: 18-18-36N, 経度: 015-58-11W, 海抜: 3m

現時点の気象観測

当レポートは1時間7分前の14:30(UTC)に作成
西/南西の風 14kt
気温 29°C
湿度 66%
気圧 1006 hPa
視程: 8000m

METAR: GQNO 251430Z 24014KT 8000 NSC 29/22 Q1006 NOSIG

時間: 15:37 (15:37 UTC)


TAF: 見つかりません

4,000以上の空港の気象観測と天気予報(METAR報とTAF報)

利用可能な観測所は地図上に黄色い丸と赤い丸で示す。

丸の上にカーソルを重ねると観測所名を参照できる。

次にクリックすると気象観測と天気予報を参照できる。

マップの切り替え:黒色「×」印の緑ボタンをクリックして拡大、「-」印の緑ボタンをクリックして縮小、緑色の三角印をクリックして隣りの地図に切り替え


METAR-TAF: